»·PEaware :: DCM5 KLAS-KSNA

DCM5 :: KLAS-KSNA

FLIGHT INFORMATION

Flight Status: Arrived
Operator: Unknown
More flights by this operator :: More flights under this callsign
Pilot: Taylor M. (19061)
Aircraft: AIRBUS A320
(A320)
More flights by this aircraft type
Origin: KLAS McCarran Intl
United States
Destination: KSNA John Wayne-Orange Co
United States
More flights between these airports :: More routes between these airports
Route: +BOACH8 WHIGG FEYLA DSNEE4
File this flight plan on PilotEdge
Remarks: PBN / A1B1C1D1O1S1 NAV / RNP2 DOF / 180928 REG / N320SB OPR / DCM RMK / TCAS
Altitude:
(Current/Filed)
26,000ft
Speed:
(Current/Filed)
410kts
Departed: 27-Sep-18 05:27 PM
Arrived: 27-Sep-18 06:12 PM
Distance/Time
Traveled:
197nm/0:44
Distance/Time
To Go:
Arrived

Flight Plot

Page will automatically refresh every two minutes.

Flight plan parsing failed; only flown route is shown


Map Options




Map Legend


Flown Route
Filed Route
Departure Airport
Arrival Airport
Navaid (VOR, NDB)
Fix

Horizontal Profiles

Position Reports

Time Latitude Longitude Heading Altitude Ground
Speed
27-Sep-18 17:05 36.079559 -115.146684 29 2098ft 0kts
27-Sep-18 17:06 36.079559 -115.146684 29 2098ft 0kts
27-Sep-18 17:07 36.079559 -115.146684 29 2098ft 0kts
27-Sep-18 17:08 36.079559 -115.146684 29 2098ft 0kts
27-Sep-18 17:09 36.079559 -115.146684 29 2098ft 0kts
27-Sep-18 17:10 36.079559 -115.146684 29 2098ft 0kts
27-Sep-18 17:11 36.079559 -115.146684 29 2098ft 0kts
27-Sep-18 17:12 36.079559 -115.146684 29 2098ft 0kts
27-Sep-18 17:13 36.079559 -115.146684 29 2098ft 0kts
27-Sep-18 17:14 36.079559 -115.146684 29 2098ft 0kts
27-Sep-18 17:15 36.079559 -115.146684 29 2098ft 0kts
27-Sep-18 17:16 36.079559 -115.146684 29 2098ft 0kts
27-Sep-18 17:17 36.079559 -115.146684 29 2098ft 0kts
27-Sep-18 17:18 36.079559 -115.146684 29 2098ft 0kts
27-Sep-18 17:19 36.079265 -115.146902 84 2100ft 0kts
27-Sep-18 17:20 36.079265 -115.146902 84 2100ft 0kts
27-Sep-18 17:21 36.079265 -115.146902 84 2100ft 0kts
27-Sep-18 17:22 36.078964 -115.146305 128 2098ft 4kts
27-Sep-18 17:23 36.078385 -115.145966 273 2099ft 13kts
27-Sep-18 17:24 36.077646 -115.145357 95 2099ft 20kts
27-Sep-18 17:25 36.077532 -115.136801 89 2072ft 34kts
27-Sep-18 17:26 36.077632 -115.129081 91 2049ft 26kts
27-Sep-18 17:27 36.077562 -115.122408 90 2038ft 11kts
27-Sep-18 17:28 36.076529 -115.121411 238 2040ft 0kts
27-Sep-18 17:29 36.076396 -115.138015 269 2077ft 162kts
27-Sep-18 17:30 36.076761 -115.199231 274 4568ft 200kts
27-Sep-18 17:31 36.051413 -115.266980 204 6297ft 277kts
27-Sep-18 17:32 35.979054 -115.299853 200 6898ft 274kts
27-Sep-18 17:33 35.902643 -115.311040 188 8717ft 294kts
27-Sep-18 17:34 35.821939 -115.312237 177 10937ft 329kts
27-Sep-18 17:35 35.725494 -115.301004 177 12913ft 361kts
27-Sep-18 17:36 35.639725 -115.347965 230 15118ft 368kts
27-Sep-18 17:37 35.570011 -115.441606 230 17362ft 376kts
27-Sep-18 17:38 35.498432 -115.537548 230 19320ft 386kts
27-Sep-18 17:39 35.425773 -115.635554 230 21069ft 395kts
27-Sep-18 17:40 35.365386 -115.716799 230 22375ft 402kts
27-Sep-18 17:41 35.289170 -115.818974 230 23872ft 410kts
27-Sep-18 17:42 35.211937 -115.921177 228 25156ft 419kts
27-Sep-18 17:43 35.130105 -116.024419 228 25936ft 436kts
27-Sep-18 17:44 35.043344 -116.133571 228 25935ft 464kts
27-Sep-18 17:45 34.953516 -116.246103 228 25936ft 465kts
27-Sep-18 17:46 34.867375 -116.353948 229 25937ft 464kts
27-Sep-18 17:47 34.779534 -116.466028 229 25616ft 445kts
27-Sep-18 17:48 34.697173 -116.570047 226 24950ft 405kts
27-Sep-18 17:49 34.614164 -116.653079 221 22950ft 400kts
27-Sep-18 17:50 34.546637 -116.719056 220 21351ft 386kts
27-Sep-18 17:51 34.468413 -116.802169 225 19527ft 371kts
27-Sep-18 17:52 34.395821 -116.886441 225 17585ft 365kts
27-Sep-18 17:53 34.324825 -116.968613 225 15782ft 354kts
27-Sep-18 17:54 34.253236 -117.044472 212 14227ft 342kts
27-Sep-18 17:55 34.173126 -117.101810 209 13150ft 341kts
27-Sep-18 17:56 34.089584 -117.147222 206 12657ft 337kts
27-Sep-18 17:57 34.009779 -117.190030 207 12082ft 338kts
27-Sep-18 17:58 33.945872 -117.268044 232 10319ft 324kts
27-Sep-18 17:59 33.893486 -117.342060 233 9255ft 289kts
27-Sep-18 18:00 33.842707 -117.414036 232 8211ft 271kts
27-Sep-18 18:01 33.807272 -117.484620 251 7716ft 243kts
27-Sep-18 18:02 33.798435 -117.563050 273 7615ft 247kts
27-Sep-18 18:03 33.804296 -117.643460 294 7592ft 245kts
27-Sep-18 18:04 33.836042 -117.707799 303 6603ft 223kts
27-Sep-18 18:05 33.866709 -117.767843 303 5806ft 208kts
27-Sep-18 18:06 33.907109 -117.803203 29 4853ft 204kts
27-Sep-18 18:07 33.905053 -117.755584 169 4043ft 191kts
27-Sep-18 18:08 33.854400 -117.757172 202 3277ft 187kts
27-Sep-18 18:09 33.811068 -117.783089 209 2897ft 165kts
27-Sep-18 18:10 33.771854 -117.807940 209 2022ft 159kts
27-Sep-18 18:11 33.734005 -117.832003 210 1266ft 146kts
27-Sep-18 18:12 33.700200 -117.853421 210 504ft 139kts
27-Sep-18 18:13 33.672119 -117.871099 208 65ft 43kts
27-Sep-18 18:14 33.669106 -117.871461 108 65ft 4kts
27-Sep-18 18:15 33.671877 -117.868261 29 65ft 20kts
27-Sep-18 18:16 33.675075 -117.865818 44 65ft 4kts
27-Sep-18 18:17 33.675021 -117.865122 115 65ft 0kts

Navigation Log

Ident Type
Flight plan parsing failed, navigation log unavailable